createdAt,value
2017-10-21T00:08:13.774Z,65.8
2017-10-21T00:18:27.938Z,65.7
2017-10-21T00:28:42.092Z,65.5
2017-10-21T00:38:53.329Z,65.7
2017-10-21T00:49:07.594Z,65.9
2017-10-21T00:59:21.835Z,65.8
2017-10-21T01:09:36.025Z,65.8
2017-10-21T01:19:50.150Z,65.5
2017-10-21T01:30:04.571Z,65.5
2017-10-21T01:40:18.776Z,65.6
2017-10-21T01:50:33.037Z,65.4
2017-10-21T02:00:47.262Z,65.1
2017-10-21T02:10:58.527Z,65.3
2017-10-21T02:21:12.782Z,65.4
2017-10-21T02:31:26.921Z,65.2
2017-10-21T02:41:38.345Z,64.9
2017-10-21T02:51:52.638Z,65.4
2017-10-21T03:02:04.677Z,65.3
2017-10-21T03:12:15.880Z,65.4
2017-10-21T03:22:29.266Z,65.1
2017-10-21T03:32:43.541Z,65.2
2017-10-21T03:42:56.054Z,65.3
2017-10-21T03:53:10.247Z,64.9
2017-10-21T04:03:24.330Z,64.9
2017-10-21T04:13:39.017Z,65.4
2017-10-21T04:23:53.641Z,65.1
2017-10-21T04:34:07.814Z,65.2
2017-10-21T04:44:22.019Z,65.2
2017-10-21T04:54:33.557Z,64.8
2017-10-21T05:04:48.500Z,65.2
2017-10-21T05:15:03.152Z,64.9
2017-10-21T05:25:47.938Z,64.9
2017-10-21T05:36:32.746Z,64.9
2017-10-21T05:46:44.685Z,64.8
2017-10-21T05:56:59.513Z,65.0
2017-10-21T06:07:13.153Z,64.8
2017-10-21T06:17:57.961Z,64.8
2017-10-21T06:28:09.266Z,65.3
2017-10-21T06:38:24.314Z,65.4
2017-10-21T06:48:38.896Z,65.5
2017-10-21T06:58:53.754Z,65.5
2017-10-21T07:09:08.344Z,65.2
2017-10-21T07:19:20.537Z,66.1
2017-10-21T07:29:34.525Z,66.3
2017-10-21T07:39:45.929Z,66.1
2017-10-21T07:50:00.064Z,66.0
2017-10-21T08:00:14.323Z,66.0
2017-10-21T08:10:28.820Z,65.9
2017-10-21T08:20:43.104Z,66.0
2017-10-21T08:30:57.867Z,66.4
2017-10-21T08:41:12.310Z,66.9
2017-10-21T08:51:26.423Z,67.3
2017-10-21T09:01:37.830Z,67.2
2017-10-21T09:11:51.997Z,67.1
2017-10-21T09:22:06.195Z,67.2
2017-10-21T09:32:21.249Z,67.4
2017-10-21T09:42:35.613Z,67.8
2017-10-21T09:52:47.775Z,67.7
2017-10-21T10:03:03.037Z,67.9
2017-10-21T10:13:47.887Z,68.3
2017-10-21T10:24:34.002Z,68.0
2017-10-21T10:34:47.702Z,68.1
2017-10-21T10:45:02.122Z,68.3
2017-10-21T10:55:14.064Z,68.3
2017-10-21T11:05:27.649Z,69.1
2017-10-21T11:15:41.746Z,69.0
2017-10-21T11:25:52.749Z,69.6
2017-10-21T11:36:06.334Z,70.4
2017-10-21T11:46:21.201Z,71.2
2017-10-21T11:56:35.829Z,71.7
2017-10-21T12:06:50.683Z,72.0
2017-10-21T12:17:05.131Z,72.4
2017-10-21T12:27:51.384Z,72.6
2017-10-21T12:38:07.284Z,73.0
2017-10-21T12:48:21.564Z,72.7
2017-10-21T12:58:42.119Z,72.6
2017-10-21T13:08:58.265Z,72.2
2017-10-21T13:19:13.466Z,71.8
2017-10-21T13:29:28.547Z,71.3
2017-10-21T13:40:14.034Z,70.3
2017-10-21T13:50:29.868Z,69.7
2017-10-21T14:00:47.928Z,69.0
2017-10-21T14:11:01.838Z,68.5
2017-10-21T14:21:53.180Z,69.1
2017-10-21T14:32:07.877Z,70.3
2017-10-21T14:42:21.751Z,70.7
2017-10-21T14:52:36.011Z,70.9
2017-10-21T15:02:50.345Z,70.1
2017-10-21T15:13:04.299Z,68.8
2017-10-21T15:23:18.697Z,68.1
2017-10-21T15:33:32.932Z,67.9
2017-10-21T15:43:46.969Z,67.7
2017-10-21T15:53:58.209Z,67.6
2017-10-21T16:04:12.438Z,67.5
2017-10-21T16:14:27.599Z,67.5
2017-10-21T16:24:41.866Z,67.4
2017-10-21T16:34:56.631Z,67.1
2017-10-21T16:45:10.444Z,67.0
2017-10-21T16:55:24.453Z,67.4
2017-10-21T17:05:38.761Z,67.4
2017-10-21T17:15:53.784Z,67.3
2017-10-21T17:26:10.518Z,67.4
2017-10-21T17:36:25.591Z,67.5
2017-10-21T17:46:39.853Z,67.6
2017-10-21T17:56:54.891Z,67.5
2017-10-21T18:07:09.084Z,67.3
2017-10-21T18:17:28.596Z,67.2
2017-10-21T18:28:17.983Z,67.0
2017-10-21T18:38:33.041Z,66.6
2017-10-21T18:48:48.479Z,66.8
2017-10-21T18:59:04.163Z,66.7
2017-10-21T19:09:49.736Z,66.7
2017-10-21T19:20:03.894Z,67.0
2017-10-21T19:30:27.724Z,67.2
2017-10-21T19:40:42.504Z,67.7
2017-10-21T19:51:06.941Z,68.0
2017-10-21T20:01:24.881Z,68.4
2017-10-21T20:12:33.216Z,67.9
2017-10-21T20:22:47.745Z,67.7
2017-10-21T20:33:00.487Z,68.4
2017-10-21T20:43:14.555Z,68.5
2017-10-21T20:53:28.244Z,68.3
2017-10-21T21:03:42.402Z,68.4
2017-10-21T21:13:56.691Z,68.5
2017-10-21T21:24:10.976Z,68.7
2017-10-21T21:34:25.947Z,68.2
2017-10-21T21:44:41.059Z,68.2
2017-10-21T21:54:54.819Z,67.6
2017-10-21T22:05:08.749Z,68.0
2017-10-21T22:15:22.975Z,68.3
2017-10-21T22:25:37.354Z,68.8
2017-10-21T22:36:23.023Z,68.7
2017-10-21T22:46:37.313Z,69.4
2017-10-21T22:56:51.390Z,69.2
2017-10-21T23:07:06.311Z,69.5
2017-10-21T23:17:19.911Z,69.6
2017-10-21T23:27:35.119Z,69.9
2017-10-21T23:37:51.254Z,69.8
2017-10-21T23:48:06.027Z,70.1
2017-10-21T23:58:50.500Z,69.7
